Time;durP1;ratioP1;P1;durP2;ratioP2;P2;SDS_P1;SDS_P2;PMS_P1;PMS_P2;Temp;Humidity;BMP_temperature;BMP_pressure;BME280_temperature;BME280_humidity;BME280_pressure;Samples;Min_cycle;Max_cycle;Signal;HPM_P1;HPM_P2
2022/03/21 00:02:02;;;;;;;41.78;18.02;;;;;;;-1.43;63.73;102100.13;5076716;28;20093;-81
2022/03/21 00:04:48;;;;;;;36.63;17.73;;;;;;;-1.53;64.79;102105.50;5076630;28;20040;-81
2022/03/21 00:07:32;;;;;;;43.63;19.30;;;;;;;-1.54;64.61;102097.69;5061868;28;20111;-81
2022/03/21 00:10:17;;;;;;;40.67;18.08;;;;;;;-1.56;64.63;102095.06;5076509;28;20448;-81
2022/03/21 00:13:02;;;;;;;38.45;17.75;;;;;;;-1.61;64.72;102091.31;5061742;28;20036;-81
2022/03/21 00:15:49;;;;;;;44.42;18.73;;;;;;;-1.59;63.79;102094.88;5061678;28;20490;-81
2022/03/21 00:18:34;;;;;;;40.42;15.93;;;;;;;-1.63;63.52;102095.44;5061689;28;20041;-81
2022/03/21 00:21:19;;;;;;;48.03;20.13;;;;;;;-1.66;64.49;102095.25;5047759;28;20047;-81
2022/03/21 00:24:04;;;;;;;47.97;19.00;;;;;;;-1.65;64.18;102102.19;5061808;28;20425;-80
2022/03/21 00:26:49;;;;;;;39.90;18.55;;;;;;;-1.66;64.51;102098.75;5076240;28;20048;-80
2022/03/21 00:29:47;;;;;;;45.40;18.30;;;;;;;-1.76;63.86;102087.78;5049201;28;20060;-81
2022/03/21 00:32:32;;;;;;;50.13;21.55;;;;;;;-1.85;65.25;102083.00;5060830;28;20150;-81
2022/03/21 00:35:17;;;;;;;42.97;19.45;;;;;;;-1.81;65.67;102087.53;5061416;28;20060;-80
2022/03/21 00:38:03;;;;;;;48.72;23.88;;;;;;;-1.85;66.41;102095.84;5076327;28;20040;-81
2022/03/21 00:40:48;;;;;;;43.15;18.17;;;;;;;-1.82;66.34;102095.13;5061219;28;20051;-81
2022/03/21 00:43:33;;;;;;;46.92;19.70;;;;;;;-1.83;65.96;102086.53;5061214;28;20384;-80
2022/03/21 00:46:17;;;;;;;40.17;18.30;;;;;;;-1.80;65.38;102088.41;5047137;28;20045;-80
2022/03/21 00:49:03;;;;;;;38.08;16.90;;;;;;;-1.89;66.23;102075.88;5076051;28;20040;-80
2022/03/21 00:51:47;;;;;;;42.65;19.23;;;;;;;-1.92;66.51;102079.19;5075922;28;20033;-80
2022/03/21 00:54:31;;;;;;;43.58;18.33;;;;;;;-1.93;66.58;102079.06;5075842;28;20494;-80
2022/03/21 00:57:16;;;;;;;38.10;17.30;;;;;;;-2.06;67.88;102079.97;5075866;28;20131;-80
2022/03/21 01:00:02;;;;;;;35.72;17.20;;;;;;;-2.09;68.72;102071.22;5047161;28;20044;-80
2022/03/21 01:02:47;;;;;;;38.10;17.20;;;;;;;-2.04;68.95;102078.41;5076560;28;20040;-80
2022/03/21 01:05:33;;;;;;;38.35;16.20;;;;;;;-2.05;69.05;102079.19;5061511;28;20052;-79
2022/03/21 01:08:17;;;;;;;40.85;18.10;;;;;;;-2.13;69.57;102072.69;5061357;28;20033;-80
2022/03/21 01:11:01;;;;;;;42.35;18.23;;;;;;;-2.06;69.08;102069.72;5047556;28;20047;-80
2022/03/21 01:13:46;;;;;;;36.80;16.88;;;;;;;-2.12;69.66;102062.50;5061598;28;20417;-80
2022/03/21 01:16:30;;;;;;;41.03;17.67;;;;;;;-2.13;69.65;102065.00;5076630;28;20437;-80
2022/03/21 01:19:14;;;;;;;41.45;18.38;;;;;;;-2.16;70.45;102065.69;5061929;28;20358;-79
2022/03/21 01:21:59;;;;;;;39.50;18.55;;;;;;;-2.12;70.38;102059.94;5076910;28;20038;-80
2022/03/21 01:24:43;;;;;;;42.88;19.52;;;;;;;-2.09;70.33;102060.94;5047289;28;20040;-80
2022/03/21 01:27:29;;;;;;;37.30;16.88;;;;;;;-2.09;70.56;102066.06;5076040;28;20040;-80
2022/03/21 01:30:14;;;;;;;36.35;16.52;;;;;;;-2.14;70.92;102066.69;5061296;28;20048;-80
2022/03/21 01:32:59;;;;;;;37.38;18.30;;;;;;;-2.09;69.80;102061.81;5076107;28;20048;-80
2022/03/21 01:35:43;;;;;;;37.85;17.02;;;;;;;-2.12;70.18;102066.75;5076593;28;20060;-80
2022/03/21 01:38:28;;;;;;;38.28;17.23;;;;;;;-2.11;70.19;102060.84;5076139;28;20449;-80
2022/03/21 01:41:12;;;;;;;36.58;16.35;;;;;;;-2.07;69.14;102062.81;5076179;28;20040;-80
2022/03/21 01:43:58;;;;;;;37.63;15.98;;;;;;;-2.08;68.98;102058.47;5076514;28;20063;-80
2022/03/21 01:46:42;;;;;;;40.80;18.35;;;;;;;-2.16;70.84;102057.97;5079665;28;20421;-80
2022/03/21 01:49:28;;;;;;;36.58;16.48;;;;;;;-2.15;70.71;102059.75;5079818;28;20044;-80
2022/03/21 01:52:12;;;;;;;32.13;15.45;;;;;;;-2.16;70.68;102059.66;5079527;28;20103;-80
2022/03/21 01:58:02;;;;;;;38.35;16.27;;;;;;;-2.29;71.82;102054.56;5079798;28;20041;-80
2022/03/21 02:00:46;;;;;;;34.13;15.32;;;;;;;-2.37;71.25;102062.69;5064798;28;20047;-80
2022/03/21 02:03:30;;;;;;;40.83;16.17;;;;;;;-2.37;71.45;102057.53;5079427;28;20116;-79
2022/03/21 02:06:16;;;;;;;34.92;15.10;;;;;;;-2.39;72.23;102050.53;5079591;28;20058;-80
2022/03/21 02:09:02;;;;;;;39.97;15.82;;;;;;;-2.40;72.47;102053.91;5079553;28;20037;-80
2022/03/21 02:11:47;;;;;;;36.97;16.40;;;;;;;-2.46;72.53;102053.50;5079161;28;20041;-80
2022/03/21 02:14:35;;;;;;;36.65;17.10;;;;;;;-2.45;71.61;102050.16;5079384;28;20041;-79
2022/03/21 02:17:23;;;;;;;34.42;16.38;;;;;;;-2.65;71.37;102018.97;5064627;28;20040;-80
2022/03/21 02:20:08;;;;;;;35.38;15.52;;;;;;;-2.56;73.84;102051.16;5079055;28;20115;-80
2022/03/21 02:23:08;;;;;;;35.30;16.05;;;;;;;-2.51;73.38;102055.78;5064039;28;20032;-80
2022/03/21 02:25:54;;;;;;;33.00;16.10;;;;;;;-2.52;72.90;102046.31;5078811;28;20060;-80
2022/03/21 02:28:40;;;;;;;39.95;19.02;;;;;;;-2.54;73.90;102050.44;5079163;28;20040;-80
2022/03/21 02:31:26;;;;;;;33.10;15.40;;;;;;;-2.64;73.99;102037.81;5078988;28;20429;-79
2022/03/21 02:34:11;;;;;;;36.58;15.95;;;;;;;-2.54;73.00;102050.44;5064014;28;20071;-79
2022/03/21 02:37:00;;;;;;;36.38;16.58;;;;;;;-2.51;72.67;102050.63;5079191;28;20044;-80
2022/03/21 02:39:45;;;;;;;35.20;16.27;;;;;;;-2.56;72.96;102046.03;5078747;28;20044;-78
2022/03/21 02:42:29;;;;;;;40.85;17.02;;;;;;;-2.55;72.70;102051.25;5078695;28;20036;-80
2022/03/21 02:45:14;;;;;;;39.50;16.25;;;;;;;-2.55;73.74;102051.25;5064001;28;20044;-80
2022/03/21 02:47:59;;;;;;;37.03;16.38;;;;;;;-2.50;72.81;102043.81;5064192;28;20036;-79
2022/03/21 02:51:01;;;;;;;40.10;16.85;;;;;;;-2.52;72.30;102042.84;5063928;28;20391;-79
2022/03/21 02:53:46;;;;;;;38.85;17.00;;;;;;;-2.54;72.67;102047.00;5078301;28;20119;-79
2022/03/21 02:56:30;;;;;;;32.83;15.20;;;;;;;-2.63;73.44;102052.44;5077195;28;20045;-80
2022/03/21 02:59:18;;;;;;;40.35;16.65;;;;;;;-2.72;74.98;102054.41;5078486;28;20428;-79
2022/03/21 03:02:02;;;;;;;35.78;16.63;;;;;;;-2.73;75.08;102040.72;5063739;28;20052;-79
2022/03/21 03:04:47;;;;;;;33.60;16.45;;;;;;;-2.68;74.75;102043.56;5078400;28;20040;-79
2022/03/21 03:07:32;;;;;;;35.65;17.13;;;;;;;-2.73;74.73;102045.84;5078285;28;20044;-79
2022/03/21 03:10:16;;;;;;;37.20;16.45;;;;;;;-2.69;73.51;102042.69;5078268;28;20048;-79
2022/03/21 03:13:01;;;;;;;34.85;15.18;;;;;;;-2.71;73.35;102045.91;5078022;28;20094;-79
2022/03/21 03:15:45;;;;;;;44.38;18.08;;;;;;;-2.94;76.88;102042.75;5063497;28;20113;-79
2022/03/21 03:18:29;;;;;;;32.92;16.73;;;;;;;-2.97;76.28;102034.88;5063473;28;20063;-79
2022/03/21 03:21:19;;;;;;;37.22;17.42;;;;;;;-2.94;75.79;102039.31;5063613;28;20345;-79
2022/03/21 03:24:05;;;;;;;33.85;16.70;;;;;;;-2.99;76.13;102035.56;5078394;28;20388;-79
2022/03/21 03:26:49;;;;;;;32.40;15.85;;;;;;;-3.01;76.98;102039.72;5077959;28;20395;-79
2022/03/21 03:29:34;;;;;;;38.10;15.95;;;;;;;-3.10;77.35;102032.28;5078131;28;20479;-79
2022/03/21 03:32:18;;;;;;;37.08;17.20;;;;;;;-3.10;77.93;102043.44;5063356;28;20437;-79
2022/03/21 03:35:03;;;;;;;33.85;16.05;;;;;;;-3.09;77.59;102042.69;5078283;28;20048;-79
2022/03/21 03:37:47;;;;;;;34.53;15.95;;;;;;;-3.09;76.90;102036.63;5063293;28;20056;-79
2022/03/21 03:40:32;;;;;;;40.95;16.92;;;;;;;-3.19;78.13;102036.81;5063015;28;20357;-79
2022/03/21 03:43:16;;;;;;;37.83;18.35;;;;;;;-3.18;78.26;102039.50;5077751;28;20040;-79
2022/03/21 03:46:00;;;;;;;39.63;17.55;;;;;;;-3.11;77.75;102043.34;5078081;28;20357;-79
2022/03/21 03:48:46;;;;;;;32.58;15.77;;;;;;;-3.09;77.46;102041.75;5063022;28;20097;-79
2022/03/21 03:51:30;;;;;;;41.65;15.85;;;;;;;-3.07;78.25;102040.19;5048462;28;20049;-79
2022/03/21 03:54:14;;;;;;;45.60;19.65;;;;;;;-3.13;78.83;102042.34;5077676;28;20051;-79
2022/03/21 03:56:59;;;;;;;45.42;20.65;;;;;;;-3.14;79.26;102041.47;5062730;28;20040;-79
2022/03/21 03:59:43;;;;;;;40.55;19.02;;;;;;;-3.11;79.46;102045.91;5062511;28;20044;-79
2022/03/21 04:02:27;;;;;;;40.45;17.58;;;;;;;-3.18;80.61;102036.94;5062327;28;20413;-79
2022/03/21 04:05:14;;;;;;;39.60;17.23;;;;;;;-3.20;81.38;102047.88;5062686;28;20138;-79
2022/03/21 04:07:59;;;;;;;34.03;15.40;;;;;;;-3.15;81.37;102044.84;5077447;28;20448;-79
2022/03/21 04:10:44;;;;;;;36.10;17.08;;;;;;;-3.21;82.02;102044.41;5077838;28;20413;-79
2022/03/21 04:13:29;;;;;;;35.45;17.52;;;;;;;-3.21;81.87;102057.25;5077879;28;20063;-79
2022/03/21 04:16:14;;;;;;;32.20;16.23;;;;;;;-3.16;80.83;102063.53;5077820;28;20067;-79
2022/03/21 04:18:58;;;;;;;36.80;17.63;;;;;;;-3.21;82.83;102064.94;5062433;28;20121;-79
2022/03/21 04:21:43;;;;;;;38.25;16.85;;;;;;;-3.22;83.46;102060.56;5062666;28;20326;-79
2022/03/21 04:24:27;;;;;;;40.33;17.10;;;;;;;-3.17;82.85;102066.03;5048310;28;20353;-79
2022/03/21 04:27:11;;;;;;;33.22;15.82;;;;;;;-3.23;83.57;102069.06;5037391;28;20041;-79
2022/03/21 04:29:56;;;;;;;37.45;18.45;;;;;;;-3.19;82.46;102062.44;5022774;28;20049;-78
2022/03/21 04:32:41;;;;;;;40.65;16.30;;;;;;;-3.24;83.57;102058.72;5050697;28;20128;-79
2022/03/21 04:35:26;;;;;;;39.80;17.63;;;;;;;-3.18;82.23;102066.81;5050211;28;20091;-79
2022/03/21 04:38:15;;;;;;;31.92;14.45;;;;;;;-3.16;80.63;102065.22;5049977;28;20072;-79
2022/03/21 04:40:59;;;;;;;39.92;17.33;;;;;;;-3.30;84.62;102065.19;5036664;28;20477;-79
2022/03/21 04:43:44;;;;;;;43.30;18.45;;;;;;;-3.27;83.93;102072.22;5050707;28;20037;-79
2022/03/21 04:46:28;;;;;;;36.13;17.98;;;;;;;-3.26;84.63;102073.09;5036628;28;20049;-78
2022/03/21 04:49:12;;;;;;;41.50;19.02;;;;;;;-3.27;84.29;102077.34;5050176;28;20041;-79
2022/03/21 04:51:57;;;;;;;42.83;18.50;;;;;;;-3.37;85.79;102075.84;5036617;28;20346;-79
2022/03/21 04:54:41;;;;;;;39.70;17.08;;;;;;;-3.37;85.41;102070.72;5037223;28;20041;-79
2022/03/21 04:57:26;;;;;;;42.55;19.70;;;;;;;-3.36;85.64;102076.72;5036601;28;20456;-79
2022/03/21 05:00:11;;;;;;;44.28;20.42;;;;;;;-3.28;84.88;102078.13;5050660;28;20076;-79
2022/03/21 05:02:56;;;;;;;43.78;21.10;;;;;;;-3.30;84.96;102080.56;5021771;28;20358;-79
2022/03/21 05:05:40;;;;;;;40.58;19.23;;;;;;;-3.22;83.07;102078.50;5036588;28;20125;-79
2022/03/21 05:08:25;;;;;;;44.50;20.33;;;;;;;-3.27;84.25;102079.03;5050065;28;20042;-79
2022/03/21 05:11:10;;;;;;;51.67;23.50;;;;;;;-3.30;86.03;102080.56;5035635;28;20124;-79
2022/03/21 05:13:56;;;;;;;55.65;25.65;;;;;;;-3.29;85.20;102077.22;5049430;28;20049;-79
2022/03/21 05:16:41;;;;;;;47.60;23.30;;;;;;;-3.19;85.51;102085.53;5021547;28;20065;-79
2022/03/21 05:19:26;;;;;;;52.83;25.67;;;;;;;-3.14;85.29;102086.72;5036601;28;20065;-79
2022/03/21 05:22:10;;;;;;;50.42;25.05;;;;;;;-3.11;85.21;102080.13;5040509;28;20045;-79
2022/03/21 05:31:18;;;;;;;58.13;25.45;;;;;;;-3.04;85.33;102089.13;4985042;28;20133;-79
2022/03/21 05:37:05;;;;;;;61.65;25.52;;;;;;;-2.78;83.14;102089.94;5078254;28;20052;-79
2022/03/21 05:42:57;;;;;;;48.90;21.35;;;;;;;-2.63;83.61;102093.50;5084845;28;20123;-83
2022/03/21 05:45:52;;;;;;;48.00;22.38;;;;;;;-2.45;84.19;102094.66;5088009;28;20028;-84
2022/03/21 05:53:33;;;;;;;55.67;22.98;;;;;;;-0.43;75.59;102099.84;5038911;28;20113;-90
2022/03/21 05:56:19;;;;;;;48.85;23.23;;;;;;;0.02;74.25;102096.31;5007532;28;20049;-90
2022/03/21 06:02:08;;;;;;;117.25;58.33;;;;;;;1.19;67.68;102107.50;5021337;28;20060;-89
2022/03/21 06:04:52;;;;;;;132.50;70.63;;;;;;;1.75;65.00;102105.06;5007401;28;20060;-89
2022/03/21 06:07:38;;;;;;;64.90;32.33;;;;;;;1.86;63.08;102114.22;5035077;28;20465;-89
2022/03/21 06:10:22;;;;;;;61.90;27.35;;;;;;;2.40;62.06;102115.78;5021181;28;20042;-89
2022/03/21 06:13:08;;;;;;;72.35;31.55;;;;;;;2.96;61.50;102113.09;5007395;28;20458;-88
2022/03/21 06:15:53;;;;;;;64.18;28.85;;;;;;;3.24;58.48;102109.06;5008099;28;20049;-88
2022/03/21 06:18:38;;;;;;;63.80;27.63;;;;;;;3.48;56.46;102111.78;5023845;28;20068;-88
2022/03/21 06:21:22;;;;;;;55.45;27.48;;;;;;;3.64;56.17;102109.00;5023564;28;20130;-87
2022/03/21 06:24:08;;;;;;;50.40;25.38;;;;;;;4.44;54.45;102104.22;5061444;28;20060;-87
2022/03/21 06:26:52;;;;;;;49.10;24.67;;;;;;;4.64;50.88;102100.63;5078575;28;20048;-87
2022/03/21 06:29:41;;;;;;;44.08;21.33;;;;;;;5.26;51.30;102098.41;5049750;28;20044;-86
2022/03/21 06:32:26;;;;;;;39.47;20.73;;;;;;;5.81;49.34;102114.88;5064308;28;20072;-86
2022/03/21 06:35:10;;;;;;;40.38;20.27;;;;;;;5.66;47.15;102111.84;5063631;28;20044;-86
2022/03/21 06:37:55;;;;;;;39.22;19.67;;;;;;;6.15;48.09;102113.34;5063958;28;20097;-86
2022/03/21 06:40:40;;;;;;;40.25;20.98;;;;;;;6.11;44.88;102120.19;5047045;28;20361;-86
2022/03/21 06:43:26;;;;;;;42.83;20.92;;;;;;;6.69;46.56;102131.38;5078962;28;20063;-85
2022/03/21 06:46:11;;;;;;;62.97;30.15;;;;;;;7.13;44.81;102124.75;5063802;28;20091;-86
2022/03/21 06:48:56;;;;;;;67.40;32.17;;;;;;;6.99;41.32;102124.41;5063976;28;20068;-86
2022/03/21 06:51:41;;;;;;;49.85;25.42;;;;;;;6.71;42.79;102127.97;5063748;28;20036;-86
2022/03/21 06:54:25;;;;;;;41.10;21.70;;;;;;;7.10;43.85;102131.63;5063618;28;20037;-86
2022/03/21 06:57:10;;;;;;;38.38;20.98;;;;;;;7.11;42.98;102129.03;5063792;28;20040;-87
2022/03/21 06:59:55;;;;;;;38.85;21.48;;;;;;;8.14;42.76;102121.03;5078665;28;20072;-85
2022/03/21 07:02:41;;;;;;;38.95;21.25;;;;;;;8.40;41.47;102119.00;5063725;28;20047;-85
2022/03/21 07:05:26;;;;;;;38.50;22.17;;;;;;;8.57;39.96;102111.50;5049297;28;20068;-85
2022/03/21 07:08:11;;;;;;;37.88;21.27;;;;;;;8.95;40.16;102127.06;5063678;28;20045;-85
2022/03/21 07:10:55;;;;;;;51.15;28.00;;;;;;;9.57;38.68;102128.09;5049393;28;20429;-85
2022/03/21 07:13:40;;;;;;;43.60;23.98;;;;;;;9.47;36.82;102134.06;5077851;28;20124;-86
2022/03/21 07:16:24;;;;;;;36.33;20.50;;;;;;;9.59;36.47;102128.16;5063110;28;20036;-86
2022/03/21 07:19:09;;;;;;;40.75;23.85;;;;;;;9.38;36.43;102144.34;5062873;28;20048;-86
2022/03/21 07:21:53;;;;;;;61.25;31.23;;;;;;;9.92;36.34;102137.38;5077892;28;20037;-86
2022/03/21 07:24:38;;;;;;;45.22;23.23;;;;;;;9.25;34.88;102137.16;5078112;28;20048;-85
2022/03/21 07:27:22;;;;;;;43.15;22.88;;;;;;;9.32;35.62;102132.06;5048803;28;20063;-85
2022/03/21 07:30:07;;;;;;;35.90;21.08;;;;;;;10.62;35.40;102127.81;5063082;28;20040;-85
2022/03/21 07:32:52;;;;;;;52.47;24.80;;;;;;;10.66;34.29;102132.25;5062577;28;20040;-85
2022/03/21 07:35:37;;;;;;;42.40;24.25;;;;;;;10.61;34.19;102133.94;5062456;28;20087;-85
2022/03/21 07:38:22;;;;;;;49.05;24.00;;;;;;;10.68;34.49;102130.50;5048357;28;20132;-85
2022/03/21 07:41:07;;;;;;;42.42;23.33;;;;;;;10.37;33.83;102125.78;5062442;28;20460;-85
2022/03/21 07:43:52;;;;;;;36.10;21.50;;;;;;;10.81;33.87;102120.16;5048157;28;20041;-85
2022/03/21 07:49:39;;;;;;;46.28;24.50;;;;;;;11.16;33.20;102117.91;5061961;28;20036;-85
2022/03/21 07:52:24;;;;;;;51.92;25.50;;;;;;;11.43;32.05;102122.50;5062023;28;20045;-84
2022/03/21 07:55:09;;;;;;;41.28;22.92;;;;;;;11.85;32.20;102115.81;5048138;28;20044;-83
2022/03/21 07:57:54;;;;;;;41.08;21.98;;;;;;;12.04;31.99;102129.94;5048186;28;20044;-84
2022/03/21 08:00:41;;;;;;;39.80;22.05;;;;;;;12.35;31.79;102123.97;5075603;28;20115;-83
2022/03/21 08:03:26;;;;;;;31.40;19.00;;;;;;;12.47;31.20;102115.25;5074943;28;20055;-83
2022/03/21 08:06:11;;;;;;;40.47;21.35;;;;;;;12.44;30.25;102125.75;5046012;28;20128;-84
2022/03/21 08:08:55;;;;;;;38.97;22.58;;;;;;;12.31;31.14;102126.56;5081750;28;20094;-84
2022/03/21 08:11:39;;;;;;;54.28;30.30;;;;;;;12.19;30.71;102119.53;5079254;28;20036;-84
2022/03/21 08:14:24;;;;;;;37.17;21.33;;;;;;;12.61;31.08;102124.06;5057124;28;20040;-83
2022/03/21 08:17:09;;;;;;;37.67;21.95;;;;;;;12.61;30.24;102124.06;5075551;28;20044;-85
2022/03/21 08:19:54;;;;;;;34.85;19.75;;;;;;;12.54;30.04;102127.53;5060916;28;20036;-84
2022/03/21 08:22:39;;;;;;;38.72;20.23;;;;;;;12.16;31.04;102125.63;5075159;28;20120;-84
2022/03/21 08:25:26;;;;;;;35.35;19.02;;;;;;;11.65;30.33;102121.78;5058987;28;20052;-83
2022/03/21 08:28:11;;;;;;;35.47;20.63;;;;;;;12.43;30.57;102131.88;5059020;28;20429;-83
2022/03/21 08:30:55;;;;;;;41.88;18.25;;;;;;;12.28;30.27;102132.69;5044822;28;20047;-84
2022/03/21 08:33:41;;;;;;;32.42;19.13;;;;;;;12.60;30.25;102124.06;5059261;28;20048;-83
2022/03/21 08:36:27;;;;;;;30.08;17.73;;;;;;;12.73;30.07;102123.22;5046654;28;20041;-83
2022/03/21 08:39:11;;;;;;;29.55;16.98;;;;;;;13.20;30.05;102124.19;5075240;28;20143;-83
2022/03/21 08:41:56;;;;;;;28.45;16.67;;;;;;;13.24;29.32;102107.53;5075645;28;20059;-83
2022/03/21 08:44:41;;;;;;;29.80;16.63;;;;;;;12.83;28.89;102111.84;5046753;28;20040;-84
2022/03/21 08:47:25;;;;;;;29.15;16.92;;;;;;;12.88;28.93;102109.25;5060382;28;20055;-84
2022/03/21 08:50:11;;;;;;;34.08;18.02;;;;;;;12.84;28.65;102100.47;5046135;28;20045;-82
2022/03/21 08:52:58;;;;;;;27.50;15.95;;;;;;;12.89;28.40;102099.59;5060835;28;20102;-84
2022/03/21 08:55:42;;;;;;;30.65;17.50;;;;;;;12.58;29.04;102091.66;5074704;28;20044;-83
2022/03/21 08:58:27;;;;;;;30.45;16.02;;;;;;;12.81;28.15;102113.59;5075289;28;20051;-83
2022/03/21 09:01:11;;;;;;;33.65;17.65;;;;;;;13.13;28.65;102104.91;5076409;28;20445;-83
2022/03/21 09:03:55;;;;;;;35.75;21.23;;;;;;;13.39;28.53;102109.28;5046743;28;20041;-90
2022/03/21 09:06:40;;;;;;;27.55;18.05;;;;;;;13.38;28.19;102107.53;5046617;28;20045;-89
2022/03/21 09:09:26;;;;;;;27.98;16.60;;;;;;;13.14;28.00;102097.88;5046809;28;20133;-91
2022/03/21 09:12:11;;;;;;;23.67;13.95;;;;;;;13.30;27.66;102099.66;5061172;28;20052;-87
2022/03/21 09:14:55;;;;;;;21.35;14.63;;;;;;;13.28;27.30;102094.38;5060808;28;20044;-88
2022/03/21 09:17:39;;;;;;;24.10;15.68;;;;;;;13.42;27.84;102094.41;5060229;28;20123;-89
2022/03/21 09:20:24;;;;;;;42.00;24.20;;;;;;;13.55;27.51;102101.41;5046155;28;20127;-89
2022/03/21 09:23:08;;;;;;;32.03;18.00;;;;;;;13.32;27.32;102084.72;5047075;28;20447;-91
2022/03/21 09:25:53;;;;;;;32.05;19.10;;;;;;;13.58;27.96;102082.06;5041277;28;20053;-92
2022/03/21 09:28:43;;;;;;;25.25;15.25;;;;;;;13.71;27.37;102096.09;5040312;28;20438;-87
2022/03/21 09:31:32;;;;;;;32.20;20.00;;;;;;;13.83;27.29;102088.19;5054722;28;20087;-87
2022/03/21 09:34:17;;;;;;;29.63;18.48;;;;;;;13.67;27.33;102094.34;5057183;28;20448;-90
2022/03/21 09:37:02;;;;;;;30.70;19.38;;;;;;;13.63;27.23;102084.72;5054638;28;20041;-88
2022/03/21 09:39:47;;;;;;;25.15;16.17;;;;;;;13.76;27.27;102092.59;5054407;28;20041;-94
2022/03/21 09:42:32;;;;;;;24.15;15.55;;;;;;;13.13;27.29;102077.69;5040580;28;20033;-93
2022/03/21 09:45:17;;;;;;;20.35;14.27;;;;;;;13.47;27.69;102073.31;5055307;28;20095;-93
2022/03/21 09:48:09;;;;;;;28.48;17.13;;;;;;;13.72;27.34;102068.91;5053994;28;20033;-91
2022/03/21 09:50:56;;;;;;;22.85;14.00;;;;;;;14.00;27.08;102075.81;5053503;28;20102;-91
2022/03/21 09:53:41;;;;;;;26.63;14.43;;;;;;;14.10;25.89;102059.97;5053536;28;20037;-90
2022/03/21 09:56:27;;;;;;;28.73;16.10;;;;;;;14.39;26.79;102058.09;5039981;28;20060;-91
2022/03/21 09:59:11;;;;;;;25.33;16.45;;;;;;;14.35;26.84;102051.09;5054228;28;20045;-91
2022/03/21 10:01:57;;;;;;;31.27;15.30;;;;;;;14.54;25.86;102067.72;5054743;28;20064;-93
2022/03/21 10:04:41;;;;;;;22.45;13.73;;;;;;;14.53;26.47;102059.78;5053919;28;20343;-93
2022/03/21 10:07:27;;;;;;;23.30;15.20;;;;;;;14.62;25.73;102063.25;5058120;28;20045;-93
2022/03/21 10:10:12;;;;;;;26.13;17.20;;;;;;;14.49;25.62;102058.91;5058533;28;20388;-92
2022/03/21 10:12:57;;;;;;;32.15;17.88;;;;;;;14.65;25.84;102062.38;5043799;28;20054;-93
2022/03/21 10:15:42;;;;;;;27.40;16.85;;;;;;;14.66;26.16;102049.19;5044233;28;20047;-92
2022/03/21 10:18:26;;;;;;;48.13;28.40;;;;;;;14.69;25.51;102043.03;5059186;28;20072;-89
2022/03/21 10:21:15;;;;;;;30.02;17.58;;;;;;;14.63;25.34;102040.44;5058075;28;20067;-91
2022/03/21 10:24:06;;;;;;;37.83;20.88;;;;;;;14.71;25.10;102047.38;5058487;28;20068;-92
2022/03/21 10:26:50;;;;;;;30.63;18.83;;;;;;;14.63;25.72;102036.03;5058154;28;20408;-91
2022/03/21 10:29:51;;;;;;;29.00;16.48;;;;;;;14.82;25.43;102042.06;5057938;28;20349;-87
2022/03/21 10:32:42;;;;;;;25.80;13.85;;;;;;;14.61;25.17;102031.63;5044294;28;20049;-94
2022/03/21 10:35:29;;;;;;;22.10;12.98;;;;;;;14.91;25.42;102047.22;5046996;28;20049;-88
2022/03/21 10:38:28;;;;;;;22.65;14.65;;;;;;;14.83;25.84;102033.25;5057013;28;20704;-89
2022/03/21 10:41:13;;;;;;;30.52;18.00;;;;;;;15.23;25.13;102026.75;5056012;28;20045;-87
2022/03/21 10:43:58;;;;;;;42.33;24.13;;;;;;;15.34;25.21;102030.16;5042304;28;20075;-89
2022/03/21 10:46:43;;;;;;;33.80;15.35;;;;;;;15.19;24.64;102032.06;5056031;28;20124;-89
2022/03/21 10:49:34;;;;;;;28.77;16.75;;;;;;;15.40;25.02;102015.16;5057087;28;20041;-88
2022/03/21 10:52:21;;;;;;;20.85;13.35;;;;;;;15.37;25.25;102016.91;5043545;28;20045;-89
2022/03/21 10:55:06;;;;;;;21.20;13.43;;;;;;;15.65;25.10;102021.03;5057505;28;20048;-89
2022/03/21 10:57:54;;;;;;;28.13;14.63;;;;;;;15.70;25.05;102014.88;5057789;28;20057;-90
2022/03/21 11:00:39;;;;;;;19.60;12.60;;;;;;;15.74;24.85;102006.88;5043688;28;20440;-91
2022/03/21 11:03:24;;;;;;;20.10;12.55;;;;;;;15.89;25.04;102009.34;5044065;28;20041;-89
2022/03/21 11:06:11;;;;;;;26.40;14.95;;;;;;;15.78;25.13;102010.34;5044718;28;20052;-87
2022/03/21 11:08:55;;;;;;;25.30;14.85;;;;;;;15.78;25.11;102013.88;5057791;28;20368;-90
2022/03/21 11:11:41;;;;;;;24.00;15.40;;;;;;;15.62;25.07;102017.53;5043441;28;20041;-86
2022/03/21 11:14:25;;;;;;;19.70;13.70;;;;;;;15.59;24.46;102009.66;5058241;28;20045;-91
2022/03/21 11:17:10;;;;;;;15.45;11.10;;;;;;;15.60;25.21;101995.56;5056689;28;20056;-88
2022/03/21 11:19:57;;;;;;;34.67;16.35;;;;;;;15.83;25.38;102000.63;5043244;28;20120;-87
2022/03/21 11:22:42;;;;;;;22.52;14.05;;;;;;;15.93;24.58;101999.59;5043673;28;20037;-90
2022/03/21 11:25:33;;;;;;;22.63;12.10;;;;;;;15.60;24.34;101990.28;5057201;28;20051;-90
2022/03/21 11:28:30;;;;;;;18.75;11.80;;;;;;;15.53;23.86;101988.59;5057236;28;20041;-91
2022/03/21 11:31:59;;;;;;;16.77;11.43;;;;;;;14.66;25.01;101993.81;5057575;28;20406;-90
2022/03/21 11:35:17;;;;;;;31.35;17.20;;;;;;;15.31;25.32;101980.03;5056549;28;20041;-90
2022/03/21 11:38:21;;;;;;;27.05;14.52;;;;;;;15.75;23.82;101982.19;5057074;28;20052;-91
2022/03/21 11:41:15;;;;;;;22.52;9.85;;;;;;;15.59;23.73;101983.25;5057506;28;20068;-89
2022/03/21 11:44:14;;;;;;;24.50;12.18;;;;;;;15.93;23.52;101964.38;5057401;28;20124;-89
2022/03/21 11:47:26;;;;;;;22.58;12.48;;;;;;;15.81;23.34;101962.75;5042692;28;20052;-91
2022/03/21 11:50:25;;;;;;;20.27;11.75;;;;;;;16.06;22.96;101960.69;5057116;28;20037;-91
2022/03/21 11:53:11;;;;;;;19.13;11.98;;;;;;;15.95;23.07;101955.50;5042581;28;20056;-90
2022/03/21 11:55:55;;;;;;;31.77;14.13;;;;;;;15.94;23.71;101950.25;5057382;28;20037;-90
2022/03/21 11:58:39;;;;;;;18.13;11.27;;;;;;;15.98;22.94;101947.53;5057327;28;20410;-91
2022/03/21 12:01:28;;;;;;;26.10;13.02;;;;;;;16.11;23.76;101945.59;5057130;28;20402;-91
2022/03/21 12:04:24;;;;;;;17.13;10.63;;;;;;;16.11;24.33;101935.91;5042648;28;20037;-90
2022/03/21 12:07:12;;;;;;;14.32;9.80;;;;;;;16.02;23.67;101941.34;5057169;28;20418;-91
2022/03/21 12:09:57;;;;;;;19.35;12.23;;;;;;;16.17;23.10;101934.09;5059471;28;20092;-90
2022/03/21 12:12:41;;;;;;;26.55;16.02;;;;;;;16.04;23.06;101933.38;5042869;28;20418;-90
2022/03/21 12:15:30;;;;;;;20.40;12.75;;;;;;;16.04;23.16;101922.81;5057010;28;20041;-93
2022/03/21 12:18:15;;;;;;;18.83;11.15;;;;;;;16.03;23.46;101913.16;5042664;28;20406;-91
2022/03/21 12:21:10;;;;;;;21.83;13.90;;;;;;;16.12;23.94;101920.94;5055775;28;20052;-92
2022/03/21 12:24:16;;;;;;;17.52;10.77;;;;;;;16.10;22.74;101913.03;5042109;28;20041;-91
2022/03/21 12:27:05;;;;;;;17.90;11.48;;;;;;;16.22;23.94;101911.97;5055381;28;20441;-90
2022/03/21 12:29:50;;;;;;;20.10;12.57;;;;;;;16.51;23.57;101910.63;5056173;28;20094;-92
2022/03/21 12:32:53;;;;;;;22.83;12.95;;;;;;;16.59;22.91;101911.38;5041444;28;20384;-83
2022/03/21 12:35:42;;;;;;;20.88;12.40;;;;;;;16.57;22.96;101902.56;5056041;28;20041;-90
2022/03/21 12:38:34;;;;;;;17.83;11.60;;;;;;;16.31;23.44;101897.72;5055892;28;20044;-86
2022/03/21 12:41:21;;;;;;;14.30;10.27;;;;;;;16.16;23.43;101896.19;5042254;28;20041;-85
2022/03/21 12:44:07;;;;;;;18.17;10.75;;;;;;;16.38;23.29;101890.56;5055544;28;20049;-89
2022/03/21 12:46:59;;;;;;;21.23;9.73;;;;;;;16.22;23.41;101896.13;5055085;28;20052;-90
2022/03/21 12:49:53;;;;;;;15.65;11.05;;;;;;;16.15;23.03;101890.91;5055588;28;20063;-92
2022/03/21 12:52:39;;;;;;;19.38;11.20;;;;;;;15.68;23.38;101874.88;5054097;28;20104;-89
2022/03/21 12:55:25;;;;;;;16.40;9.55;;;;;;;15.70;23.58;101880.16;5053718;28;20041;-89
2022/03/21 12:58:12;;;;;;;21.05;11.48;;;;;;;15.96;23.89;101877.13;5039404;28;20418;-89
2022/03/21 13:01:00;;;;;;;14.82;9.88;;;;;;;16.02;23.49;101877.91;5053413;28;20102;-89
2022/03/21 13:03:45;;;;;;;15.60;9.38;;;;;;;15.97;23.94;101879.75;5039494;28;20045;-88